Gulfport, Florida
Current Conditions -  °F | °C
As of 10:53 AM on Friday 21 Nov 2014 (Local Time) from KSPG Reporting Station
Few Clouds Few Clouds  
Wind Chill: 63°   Ceiling: Unl
Heat Index: 63°   Visibility: 10mi
Dew Point: 50°   Wind: 15mph
Humidity: 63%   Direction: 60°ENE
Pressure: 30.27"   Gusts: NA
Location:  27.75°N, 82.7°W
Report Text: KSPG 211553Z 06013KT 10SM FEW100 17/10 A3027 RMK AO2 SLP248 T01720100
Loading
Personal Weather Stations






























Interactive Weather Map New forecast layout! Learn more

10-Day Weather Forecast

Advertisements
Track Severe Weather on mobile